Time;durP1;ratioP1;P1;durP2;ratioP2;P2;SDS_P1;SDS_P2;PMS_P1;PMS_P2;Temp;Humidity;BMP_temperature;BMP_pressure;BME280_temperature;BME280_humidity;BME280_pressure;Samples;Min_cycle;Max_cycle;Signal;HPM_P1;HPM_P2
2021/06/18 00:00:13;;;;;;;5.43;4.30;;;23.80;58.20;;;;;;5080579;28;20478;-74
2021/06/18 00:02:39;;;;;;;10.20;4.57;;;23.80;57.30;;;;;;5080135;28;20191;-73
2021/06/18 00:05:09;;;;;;;9.97;4.77;;;23.80;57.00;;;;;;5074637;28;20568;-75
2021/06/18 00:07:35;;;;;;;6.70;4.43;;;23.80;56.80;;;;;;5081704;28;20904;-72
2021/06/18 00:10:01;;;;;;;7.60;5.17;;;23.70;57.40;;;;;;5083997;28;20433;-72
2021/06/18 00:12:27;;;;;;;7.00;4.57;;;23.70;58.10;;;;;;5083116;28;20460;-74
2021/06/18 00:14:52;;;;;;;8.27;5.33;;;23.70;58.10;;;;;;5071672;28;20214;-74
2021/06/18 00:17:18;;;;;;;5.60;4.70;;;23.60;58.50;;;;;;5069971;28;20191;-74
2021/06/18 00:19:44;;;;;;;8.07;4.93;;;23.60;58.50;;;;;;5070513;28;20220;-74
2021/06/18 00:22:10;;;;;;;7.53;4.43;;;23.60;58.20;;;;;;5068959;28;20190;-75
2021/06/18 00:24:35;;;;;;;8.30;4.47;;;23.50;58.50;;;;;;5067414;28;20211;-74
2021/06/18 00:27:01;;;;;;;9.40;4.27;;;23.50;58.10;;;;;;5069468;28;20644;-73
2021/06/18 00:29:27;;;;;;;8.60;6.07;;;23.40;58.70;;;;;;5072886;28;20195;-75
2021/06/18 00:31:52;;;;;;;8.60;5.87;;;23.40;60.30;;;;;;5072485;28;20196;-73
2021/06/18 00:34:18;;;;;;;10.90;7.77;;;23.30;63.80;;;;;;5066854;28;20221;-74
2021/06/18 00:36:44;;;;;;;10.00;8.13;;;23.40;67.70;;;;;;5071158;28;20335;-73
2021/06/18 00:39:10;;;;;;;9.57;7.57;;;23.30;68.60;;;;;;5073072;28;20233;-73
2021/06/18 00:41:35;;;;;;;13.93;6.87;;;23.10;69.10;;;;;;5072230;28;20182;-74
2021/06/18 00:44:01;;;;;;;11.90;7.87;;;23.00;67.50;;;;;;5072534;28;20207;-74
2021/06/18 00:46:27;;;;;;;7.77;6.17;;;22.90;67.60;;;;;;5071194;28;20201;-74
2021/06/18 00:48:54;;;;;;;7.33;5.87;;;22.90;66.00;;;;;;5064698;28;20717;-72
2021/06/18 00:51:20;;;;;;;8.57;5.70;;;22.90;65.30;;;;;;5066240;28;20457;-74
2021/06/18 00:53:46;;;;;;;6.67;5.40;;;22.80;64.50;;;;;;5072563;28;20463;-73
2021/06/18 00:56:12;;;;;;;7.60;5.60;;;22.80;63.40;;;;;;5072359;28;20430;-74
2021/06/18 00:58:38;;;;;;;6.23;4.60;;;22.80;63.40;;;;;;5072639;28;20427;-74
2021/06/18 01:01:04;;;;;;;8.03;5.97;;;22.90;61.50;;;;;;5072047;28;20198;-74
2021/06/18 01:03:30;;;;;;;8.50;5.87;;;22.80;61.90;;;;;;5066245;28;20446;-74
2021/06/18 01:05:56;;;;;;;11.93;7.80;;;22.70;63.40;;;;;;5070538;28;20439;-74
2021/06/18 01:08:28;;;;;;;12.30;7.50;;;22.70;68.00;;;;;;5073066;28;20186;-73
2021/06/18 01:11:21;;;;;;;7.60;5.87;;;22.60;69.50;;;;;;5071982;28;20185;-73
2021/06/18 01:14:07;;;;;;;8.40;5.87;;;22.50;67.20;;;;;;5072322;28;20431;-74
2021/06/18 01:16:35;;;;;;;7.70;5.37;;;22.50;64.80;;;;;;5068869;28;20502;-74
2021/06/18 01:19:15;;;;;;;8.70;5.27;;;22.40;63.50;;;;;;5072237;28;20459;-74
2021/06/18 01:22:04;;;;;;;6.60;4.80;;;22.50;63.20;;;;;;5068362;28;20457;-73
2021/06/18 01:25:03;;;;;;;6.10;4.90;;;22.50;61.30;;;;;;5071642;28;20457;-74
2021/06/18 01:27:31;;;;;;;7.00;4.90;;;22.50;63.90;;;;;;5072101;28;20423;-73
2021/06/18 01:30:08;;;;;;;12.73;5.30;;;22.50;63.20;;;;;;5072031;28;20497;-74
2021/06/18 01:32:48;;;;;;;10.20;7.33;;;22.50;63.50;;;;;;5071983;28;20425;-74
2021/06/18 01:35:19;;;;;;;9.03;6.40;;;22.50;68.50;;;;;;5064962;28;20681;-73
2021/06/18 01:37:49;;;;;;;9.97;7.50;;;22.40;69.80;;;;;;5071517;28;20424;-74
2021/06/18 01:40:17;;;;;;;13.07;8.60;;;22.30;70.50;;;;;;5079753;28;20459;-76
2021/06/18 01:42:45;;;;;;;9.60;7.20;;;22.20;71.00;;;;;;5077824;28;20524;-73
2021/06/18 01:45:14;;;;;;;6.10;5.40;;;22.10;71.60;;;;;;5070343;28;20443;-74
2021/06/18 01:47:42;;;;;;;8.50;6.30;;;22.10;69.90;;;;;;5071537;28;20567;-74
2021/06/18 01:50:09;;;;;;;8.10;5.40;;;22.20;68.60;;;;;;5069087;28;20477;-74
2021/06/18 01:52:39;;;;;;;8.17;5.23;;;22.20;66.30;;;;;;5070608;28;20414;-74
2021/06/18 01:55:07;;;;;;;8.70;6.57;;;22.30;65.10;;;;;;5067434;28;20439;-74
2021/06/18 01:57:36;;;;;;;11.47;7.40;;;22.30;66.40;;;;;;5071867;28;20416;-74
2021/06/18 02:00:06;;;;;;;10.13;7.60;;;22.20;70.70;;;;;;5071534;28;20470;-74
2021/06/18 02:02:33;;;;;;;10.27;7.13;;;22.20;72.40;;;;;;5085304;28;20433;-73
2021/06/18 02:04:59;;;;;;;10.27;7.83;;;22.20;72.10;;;;;;5070541;28;20445;-72
2021/06/18 02:07:27;;;;;;;11.70;7.33;;;22.10;73.30;;;;;;5072328;28;20455;-73
2021/06/18 02:09:54;;;;;;;12.20;7.57;;;21.90;73.00;;;;;;5071569;28;20440;-73
2021/06/18 02:12:21;;;;;;;13.30;6.73;;;21.80;72.90;;;;;;5071200;28;20420;-74
2021/06/18 02:14:49;;;;;;;10.30;6.33;;;21.70;72.40;;;;;;5070605;28;20692;-73
2021/06/18 02:17:16;;;;;;;7.90;5.70;;;21.70;71.10;;;;;;5071228;28;20429;-74
2021/06/18 02:19:43;;;;;;;7.50;5.03;;;21.70;68.30;;;;;;5070398;28;20488;-74
2021/06/18 02:22:12;;;;;;;7.20;5.50;;;21.70;67.70;;;;;;5069046;28;20428;-76
2021/06/18 02:24:39;;;;;;;7.40;5.43;;;21.80;66.40;;;;;;5065540;28;20454;-74
2021/06/18 02:27:05;;;;;;;6.80;5.23;;;21.80;66.30;;;;;;5071753;28;20958;-74
2021/06/18 02:29:31;;;;;;;5.83;4.53;;;21.80;66.40;;;;;;5067098;28;20932;-74
2021/06/18 02:32:01;;;;;;;6.93;4.47;;;21.80;66.70;;;;;;5069580;28;20427;-74
2021/06/18 02:34:27;;;;;;;9.60;7.30;;;21.90;66.10;;;;;;5064165;28;20474;-73
2021/06/18 02:36:53;;;;;;;10.70;8.07;;;22.00;71.40;;;;;;5070464;28;20427;-74
2021/06/18 02:39:19;;;;;;;10.07;7.40;;;22.00;72.90;;;;;;5070567;28;20473;-74
2021/06/18 02:41:45;;;;;;;9.97;7.00;;;21.90;72.70;;;;;;5069475;28;20182;-74
2021/06/18 02:44:11;;;;;;;12.10;6.60;;;21.80;73.20;;;;;;5063960;28;20220;-74
2021/06/18 02:46:58;;;;;;;7.60;6.30;;;21.70;71.00;;;;;;5070265;28;20311;-74
2021/06/18 02:49:33;;;;;;;11.70;6.20;;;21.80;69.90;;;;;;5070648;28;20852;-73
2021/06/18 02:52:06;;;;;;;8.50;6.13;;;21.80;69.40;;;;;;5066534;28;20506;-73
2021/06/18 02:54:37;;;;;;;8.37;5.83;;;21.80;69.10;;;;;;5070326;28;20441;-73
2021/06/18 02:57:09;;;;;;;11.33;7.07;;;21.80;68.80;;;;;;5074342;28;20417;-73
2021/06/18 02:59:51;;;;;;;10.10;6.90;;;21.70;70.50;;;;;;5091118;28;20461;-74
2021/06/18 03:02:19;;;;;;;9.33;7.60;;;21.70;72.10;;;;;;5090479;28;20397;-74
2021/06/18 03:04:46;;;;;;;9.30;7.20;;;21.70;73.00;;;;;;5076138;28;20497;-74
2021/06/18 03:07:16;;;;;;;12.93;8.27;;;21.70;72.90;;;;;;5072152;28;20414;-74
2021/06/18 03:09:48;;;;;;;11.23;8.80;;;21.40;76.10;;;;;;5073345;28;20411;-74
2021/06/18 03:12:16;;;;;;;11.80;8.47;;;21.00;77.80;;;;;;5070916;28;20422;-74
2021/06/18 03:14:44;;;;;;;11.57;8.37;;;20.70;79.20;;;;;;5068719;28;20544;-74
2021/06/18 03:17:16;;;;;;;10.20;7.93;;;20.80;78.90;;;;;;5069576;28;20832;-73
2021/06/18 03:19:45;;;;;;;10.70;9.00;;;20.90;78.10;;;;;;5068689;28;20464;-75
2021/06/18 03:22:15;;;;;;;14.93;8.67;;;21.00;77.00;;;;;;5064232;28;20470;-73
2021/06/18 03:24:42;;;;;;;15.90;8.70;;;21.10;76.80;;;;;;5069717;28;20451;-73
2021/06/18 03:27:09;;;;;;;11.40;8.37;;;21.20;77.00;;;;;;5070414;28;20424;-74
2021/06/18 03:29:37;;;;;;;14.83;8.37;;;21.30;76.80;;;;;;5071446;28;20432;-73
2021/06/18 03:32:04;;;;;;;12.20;8.23;;;21.40;76.10;;;;;;5070541;28;20423;-73
2021/06/18 03:34:31;;;;;;;11.20;8.20;;;21.50;75.50;;;;;;5066637;28;20472;-74
2021/06/18 03:36:59;;;;;;;11.07;7.43;;;21.50;75.20;;;;;;5072451;28;20417;-73
2021/06/18 03:39:25;;;;;;;12.53;8.27;;;21.60;74.30;;;;;;5073118;28;20466;-74
2021/06/18 03:41:51;;;;;;;11.60;7.23;;;21.70;73.70;;;;;;5070343;28;20450;-74
2021/06/18 03:44:19;;;;;;;12.80;7.73;;;21.80;73.50;;;;;;5072285;28;20490;-74
2021/06/18 03:46:46;;;;;;;13.07;8.53;;;21.80;73.20;;;;;;5069812;28;20194;-74
2021/06/18 03:49:13;;;;;;;13.63;7.83;;;21.80;73.20;;;;;;5070416;28;20829;-74
2021/06/18 03:51:39;;;;;;;12.97;8.50;;;21.80;72.90;;;;;;5064298;28;20415;-74
2021/06/18 03:54:06;;;;;;;13.33;8.53;;;21.80;72.70;;;;;;5069885;28;20419;-75
2021/06/18 03:56:33;;;;;;;14.27;9.47;;;21.80;73.00;;;;;;5071496;28;20420;-73
2021/06/18 03:58:59;;;;;;;11.60;8.30;;;21.90;73.00;;;;;;5072155;28;20504;-74
2021/06/18 04:01:26;;;;;;;11.10;8.10;;;22.00;72.60;;;;;;5075619;28;20423;-74
2021/06/18 04:03:53;;;;;;;8.70;7.13;;;22.00;72.30;;;;;;5084400;28;20431;-74
2021/06/18 04:06:20;;;;;;;9.40;7.17;;;22.00;71.70;;;;;;5081595;28;20418;-74
2021/06/18 04:08:46;;;;;;;9.87;7.20;;;22.00;71.70;;;;;;5082566;28;20425;-73
2021/06/18 04:11:14;;;;;;;9.90;7.40;;;22.00;71.10;;;;;;5088518;28;20451;-74
2021/06/18 04:13:41;;;;;;;10.60;7.30;;;22.10;71.40;;;;;;5088301;28;20415;-74
2021/06/18 04:16:08;;;;;;;10.23;6.83;;;22.10;71.80;;;;;;5079947;28;20441;-74
2021/06/18 04:18:36;;;;;;;8.70;6.80;;;22.10;71.80;;;;;;5073309;28;20452;-74
2021/06/18 04:21:10;;;;;;;11.33;7.50;;;22.10;71.60;;;;;;5071753;28;20482;-74
2021/06/18 04:23:36;;;;;;;11.77;7.90;;;22.20;71.30;;;;;;5069628;28;20884;-74
2021/06/18 04:26:02;;;;;;;11.40;8.40;;;22.20;70.80;;;;;;5072002;28;20497;-73
2021/06/18 04:28:28;;;;;;;14.97;8.40;;;22.20;70.70;;;;;;5073049;28;20221;-74
2021/06/18 04:30:55;;;;;;;10.30;8.57;;;22.20;71.60;;;;;;5072987;28;20192;-75
2021/06/18 04:33:21;;;;;;;10.00;8.17;;;22.00;72.40;;;;;;5075299;28;20528;-73
2021/06/18 04:35:46;;;;;;;12.93;7.83;;;22.10;72.60;;;;;;5080204;28;20697;-74
2021/06/18 04:38:12;;;;;;;12.93;7.90;;;22.10;72.90;;;;;;5076543;28;20514;-74
2021/06/18 04:40:38;;;;;;;11.70;7.93;;;22.20;72.70;;;;;;5074366;28;20199;-75
2021/06/18 04:43:04;;;;;;;11.73;7.40;;;22.20;72.90;;;;;;5074633;28;20181;-75
2021/06/18 04:45:30;;;;;;;10.20;8.17;;;22.40;72.10;;;;;;5074385;28;20201;-75
2021/06/18 04:47:57;;;;;;;10.90;7.33;;;22.40;71.70;;;;;;5073288;28;20191;-76
2021/06/18 04:50:23;;;;;;;12.53;7.97;;;22.40;72.10;;;;;;5074561;28;20194;-74
2021/06/18 04:52:49;;;;;;;9.87;7.70;;;22.50;71.60;;;;;;5073281;28;20437;-74
2021/06/18 04:55:16;;;;;;;12.33;8.40;;;22.60;70.50;;;;;;5070420;28;20517;-75
2021/06/18 04:57:43;;;;;;;13.10;8.87;;;22.70;70.50;;;;;;5073135;28;20426;-76
2021/06/18 05:00:09;;;;;;;12.20;8.87;;;22.60;71.30;;;;;;5074390;28;20463;-75
2021/06/18 05:02:35;;;;;;;11.10;9.10;;;22.40;72.10;;;;;;5072846;28;20451;-76
2021/06/18 05:05:02;;;;;;;13.27;9.13;;;22.40;72.70;;;;;;5074310;28;20478;-75
2021/06/18 05:07:27;;;;;;;10.80;8.20;;;22.40;73.20;;;;;;5074843;28;20800;-75
2021/06/18 05:09:53;;;;;;;10.00;8.30;;;22.40;73.50;;;;;;5073026;28;20556;-75
2021/06/18 05:12:19;;;;;;;10.17;8.20;;;22.50;73.50;;;;;;5072536;28;20187;-75
2021/06/18 05:14:45;;;;;;;14.67;9.20;;;22.60;73.00;;;;;;5072362;28;20233;-75
2021/06/18 05:17:10;;;;;;;11.70;9.33;;;22.80;72.60;;;;;;5073320;28;20430;-74
2021/06/18 05:19:36;;;;;;;13.07;8.73;;;22.90;71.80;;;;;;5073497;28;20220;-75
2021/06/18 05:22:03;;;;;;;13.33;9.20;;;22.90;71.30;;;;;;5083713;28;20190;-75
2021/06/18 05:24:29;;;;;;;13.20;9.23;;;23.00;71.00;;;;;;5096041;28;20440;-75
2021/06/18 05:26:55;;;;;;;15.40;9.10;;;23.00;71.40;;;;;;5086272;28;20441;-75
2021/06/18 05:29:21;;;;;;;12.80;8.37;;;23.10;72.00;;;;;;5070854;28;20181;-75
2021/06/18 05:31:47;;;;;;;10.07;7.93;;;23.20;71.60;;;;;;5063959;28;21049;-74
2021/06/18 05:34:13;;;;;;;12.47;8.33;;;23.20;71.80;;;;;;5073302;28;20295;-75
2021/06/18 05:36:39;;;;;;;10.73;8.17;;;23.30;69.20;;;;;;5073317;28;20334;-75
2021/06/18 05:39:05;;;;;;;11.40;8.10;;;23.30;71.10;;;;;;5071836;28;20472;-77
2021/06/18 05:41:31;;;;;;;18.27;8.80;;;23.50;71.00;;;;;;5071797;28;20428;-75
2021/06/18 05:43:57;;;;;;;15.13;8.80;;;23.60;70.40;;;;;;5071338;28;20416;-75
2021/06/18 05:46:23;;;;;;;9.47;7.57;;;23.70;69.50;;;;;;5073735;28;20245;-76
2021/06/18 05:48:48;;;;;;;17.77;8.40;;;23.80;68.50;;;;;;5072708;28;20233;-76
2021/06/18 05:51:14;;;;;;;9.30;7.67;;;23.90;68.80;;;;;;5078634;28;21291;-75
2021/06/18 05:53:40;;;;;;;11.73;7.83;;;24.10;65.30;;;;;;5077359;28;20561;-75
2021/06/18 05:56:06;;;;;;;11.63;7.80;;;24.20;66.00;;;;;;5071216;28;20207;-74
2021/06/18 05:58:32;;;;;;;10.83;7.30;;;24.30;64.20;;;;;;5077437;28;20178;-75
2021/06/18 06:00:58;;;;;;;9.40;6.43;;;24.50;65.00;;;;;;5080812;28;20611;-75
2021/06/18 06:03:23;;;;;;;12.67;7.90;;;24.50;65.00;;;;;;5071887;28;20184;-74
2021/06/18 06:05:50;;;;;;;8.63;7.10;;;24.60;63.80;;;;;;5072170;28;20210;-75
2021/06/18 06:08:16;;;;;;;10.77;7.00;;;24.70;63.20;;;;;;5072739;28;20691;-75
2021/06/18 06:10:41;;;;;;;10.70;6.77;;;24.80;63.70;;;;;;5072798;28;20472;-75
2021/06/18 06:13:07;;;;;;;9.20;6.80;;;24.90;63.90;;;;;;5073021;28;20218;-76
2021/06/18 06:15:33;;;;;;;12.30;7.00;;;25.00;63.50;;;;;;5072224;28;20210;-75
2021/06/18 06:17:59;;;;;;;12.07;7.13;;;24.90;62.60;;;;;;5069918;28;20558;-75
2021/06/18 06:20:25;;;;;;;18.90;7.67;;;25.00;63.20;;;;;;5072624;28;20218;-75
2021/06/18 06:22:51;;;;;;;11.67;7.77;;;25.10;62.90;;;;;;5065898;28;20432;-76
2021/06/18 06:25:17;;;;;;;10.37;7.20;;;25.20;63.10;;;;;;5071706;28;20951;-75
2021/06/18 06:27:42;;;;;;;10.97;7.27;;;25.30;62.90;;;;;;5071823;28;20201;-76
2021/06/18 06:30:09;;;;;;;14.57;7.63;;;25.40;62.20;;;;;;5072487;28;20274;-77
2021/06/18 06:32:34;;;;;;;10.07;7.60;;;25.40;61.50;;;;;;5072737;28;20185;-75
2021/06/18 06:35:02;;;;;;;12.43;9.53;;;25.50;61.50;;;;;;5065168;28;20950;-76
2021/06/18 06:37:28;;;;;;;11.30;7.87;;;25.60;62.00;;;;;;5072571;28;20190;-76
2021/06/18 06:39:54;;;;;;;16.30;7.80;;;25.70;60.70;;;;;;5072044;28;20479;-77
2021/06/18 06:42:20;;;;;;;12.50;7.27;;;25.70;60.10;;;;;;5071917;28;20423;-74
2021/06/18 06:44:46;;;;;;;18.67;8.03;;;25.80;60.60;;;;;;5075831;28;20206;-75
2021/06/18 06:47:11;;;;;;;11.83;6.40;;;25.90;60.60;;;;;;5067984;28;20527;-75
2021/06/18 06:49:37;;;;;;;9.70;6.50;;;25.90;60.30;;;;;;5071966;28;20210;-75
2021/06/18 06:52:03;;;;;;;10.83;7.33;;;25.80;59.60;;;;;;5063418;28;20199;-75
2021/06/18 06:54:29;;;;;;;10.37;7.43;;;25.80;60.10;;;;;;5070372;28;20205;-75
2021/06/18 06:56:56;;;;;;;8.87;6.60;;;25.90;60.40;;;;;;5071136;28;20435;-75
2021/06/18 06:59:22;;;;;;;14.30;7.23;;;26.00;60.90;;;;;;5070441;28;20880;-75
2021/06/18 07:01:47;;;;;;;21.10;7.43;;;26.10;60.30;;;;;;5070880;28;20425;-74
2021/06/18 07:04:13;;;;;;;10.07;7.90;;;26.20;60.70;;;;;;5071622;28;20238;-75
2021/06/18 07:06:39;;;;;;;11.13;7.70;;;26.10;59.90;;;;;;5070366;28;20425;-76
2021/06/18 07:09:06;;;;;;;13.17;8.13;;;26.00;60.70;;;;;;5064429;28;20429;-75
2021/06/18 07:11:32;;;;;;;11.03;7.13;;;26.20;60.40;;;;;;5070809;28;20187;-74
2021/06/18 07:13:58;;;;;;;12.47;7.10;;;26.30;60.10;;;;;;5070913;28;20516;-76
2021/06/18 07:16:25;;;;;;;14.80;7.27;;;26.40;59.50;;;;;;5066729;28;20215;-75
2021/06/18 07:18:51;;;;;;;11.47;7.80;;;26.40;59.60;;;;;;5070919;28;20187;-75
2021/06/18 07:21:17;;;;;;;11.10;6.63;;;26.50;59.60;;;;;;5067341;28;20496;-75
2021/06/18 07:23:43;;;;;;;14.53;7.30;;;26.60;59.10;;;;;;5069044;28;20464;-75
2021/06/18 07:26:08;;;;;;;13.50;7.53;;;26.70;58.10;;;;;;5071157;28;20201;-76
2021/06/18 07:28:34;;;;;;;11.80;6.60;;;26.80;57.70;;;;;;5071023;28;20217;-75
2021/06/18 07:31:00;;;;;;;12.70;7.30;;;26.80;56.60;;;;;;5070118;28;20677;-75
2021/06/18 07:33:26;;;;;;;11.70;6.73;;;26.80;56.50;;;;;;5068967;28;20296;-75
2021/06/18 07:35:52;;;;;;;13.63;7.43;;;26.90;56.90;;;;;;5070624;28;20219;-74
2021/06/18 07:38:17;;;;;;;10.90;7.67;;;26.90;56.20;;;;;;5066507;28;20534;-75
2021/06/18 07:40:43;;;;;;;11.70;8.17;;;26.90;57.00;;;;;;5069959;28;20335;-73
2021/06/18 07:43:09;;;;;;;10.87;6.77;;;27.00;56.50;;;;;;5070125;28;20182;-73
2021/06/18 07:45:35;;;;;;;11.20;7.53;;;27.00;56.80;;;;;;5071476;28;20237;-75
2021/06/18 07:48:02;;;;;;;15.20;7.80;;;27.20;56.20;;;;;;5071214;28;20241;-77
2021/06/18 07:50:28;;;;;;;11.70;7.40;;;27.20;56.90;;;;;;5069976;28;20187;-77
2021/06/18 07:52:54;;;;;;;14.10;8.10;;;27.30;57.40;;;;;;5060851;28;20461;-73
2021/06/18 07:55:22;;;;;;;12.43;8.20;;;27.30;57.60;;;;;;5065451;28;20467;-75
2021/06/18 07:57:48;;;;;;;14.20;8.40;;;27.30;58.00;;;;;;5071802;28;20219;-77
2021/06/18 08:00:14;;;;;;;12.57;8.93;;;27.20;57.20;;;;;;5073524;28;20492;-76
2021/06/18 08:02:41;;;;;;;15.20;8.57;;;27.20;57.20;;;;;;5077346;28;20180;-76
2021/06/18 08:05:10;;;;;;;14.63;8.60;;;27.10;57.70;;;;;;5079190;28;20517;-76
2021/06/18 08:07:36;;;;;;;15.50;8.33;;;27.10;58.10;;;;;;5077173;28;20869;-75
2021/06/18 08:10:03;;;;;;;14.80;8.30;;;27.00;58.50;;;;;;5074399;28;20480;-75
2021/06/18 08:12:28;;;;;;;12.50;8.50;;;27.00;58.40;;;;;;5071590;28;20461;-75
2021/06/18 08:14:54;;;;;;;13.40;8.53;;;27.00;58.40;;;;;;5085230;28;20447;-73
2021/06/18 08:17:20;;;;;;;12.43;9.10;;;27.20;57.70;;;;;;5087174;28;20260;-74
2021/06/18 08:19:46;;;;;;;12.90;8.60;;;27.40;57.40;;;;;;5078004;28;20208;-74
2021/06/18 08:22:11;;;;;;;11.70;8.37;;;27.40;58.00;;;;;;5071275;28;20186;-75
2021/06/18 08:24:37;;;;;;;13.03;8.93;;;27.60;58.20;;;;;;5070748;28;20227;-77
2021/06/18 08:27:03;;;;;;;18.03;9.63;;;27.70;57.70;;;;;;5071878;28;20238;-78
2021/06/18 08:29:29;;;;;;;14.37;8.97;;;27.80;57.30;;;;;;5071293;28;20194;-75
2021/06/18 08:31:55;;;;;;;15.50;9.40;;;27.80;56.90;;;;;;5070638;28;20454;-76
2021/06/18 08:34:21;;;;;;;14.53;8.50;;;27.90;56.80;;;;;;5071482;28;20462;-76
2021/06/18 08:36:48;;;;;;;12.17;8.50;;;28.00;56.90;;;;;;5072661;28;20495;-75
2021/06/18 08:39:14;;;;;;;12.90;8.80;;;28.00;56.10;;;;;;5071872;28;20254;-75
2021/06/18 08:41:41;;;;;;;11.50;8.83;;;28.10;55.70;;;;;;5068426;28;20509;-77
2021/06/18 08:44:07;;;;;;;11.93;8.90;;;28.20;54.90;;;;;;5068254;28;20433;-75
2021/06/18 08:46:33;;;;;;;12.13;9.40;;;28.20;54.80;;;;;;5069794;28;20418;-74
2021/06/18 08:48:59;;;;;;;12.80;9.90;;;28.30;54.10;;;;;;5069562;28;20202;-75
2021/06/18 08:51:25;;;;;;;12.70;9.10;;;28.40;54.20;;;;;;5081597;28;20415;-74
2021/06/18 08:53:51;;;;;;;12.90;9.67;;;28.40;54.40;;;;;;5071642;28;20430;-76
2021/06/18 08:56:18;;;;;;;13.47;10.30;;;28.40;53.80;;;;;;5074124;28;20410;-75
2021/06/18 08:58:43;;;;;;;16.23;9.40;;;28.20;54.40;;;;;;5073874;28;21040;-77
2021/06/18 09:01:09;;;;;;;11.80;9.60;;;28.20;54.40;;;;;;5068380;28;20414;-75
2021/06/18 09:03:37;;;;;;;13.30;9.33;;;28.40;54.50;;;;;;5071335;28;20207;-75
2021/06/18 09:06:27;;;;;;;11.70;8.70;;;28.40;54.90;;;;;;5076699;28;20517;-78
2021/06/18 09:09:19;;;;;;;14.87;9.13;;;28.60;55.30;;;;;;5077273;28;20414;-77
2021/06/18 09:11:56;;;;;;;13.17;10.40;;;28.60;55.70;;;;;;5076654;28;20959;-76
2021/06/18 09:14:24;;;;;;;12.43;9.30;;;28.60;55.60;;;;;;5076869;28;20493;-76
2021/06/18 09:17:20;;;;;;;13.47;9.73;;;28.80;55.60;;;;;;5076216;28;20410;-77
2021/06/18 09:20:00;;;;;;;14.73;9.63;;;28.90;55.20;;;;;;5073333;28;20458;-77
2021/06/18 09:22:39;;;;;;;16.77;9.80;;;29.00;54.80;;;;;;5075120;28;20446;-76
2021/06/18 09:25:09;;;;;;;19.00;11.07;;;29.20;55.00;;;;;;5069445;28;20456;-75
2021/06/18 09:27:41;;;;;;;20.37;9.93;;;29.30;54.20;;;;;;5071404;28;20910;-74
2021/06/18 09:30:34;;;;;;;19.20;9.93;;;29.40;54.20;;;;;;5075037;28;20476;-79
2021/06/18 09:33:21;;;;;;;15.60;10.83;;;29.40;53.60;;;;;;5065531;28;20525;-76
2021/06/18 09:36:07;;;;;;;14.90;10.10;;;29.40;53.40;;;;;;5090342;28;20457;-74
2021/06/18 09:39:00;;;;;;;12.17;10.20;;;29.50;53.30;;;;;;5093676;28;20418;-74
2021/06/18 09:41:44;;;;;;;13.30;10.73;;;29.50;53.40;;;;;;5089231;28;20418;-75
2021/06/18 09:44:18;;;;;;;14.53;10.73;;;29.50;52.80;;;;;;5088632;28;20463;-73
2021/06/18 09:46:48;;;;;;;12.13;9.97;;;29.50;51.70;;;;;;5091910;28;20442;-75
2021/06/18 09:49:36;;;;;;;13.70;9.80;;;29.60;51.40;;;;;;5085900;28;20505;-75
2021/06/18 09:52:09;;;;;;;17.77;11.13;;;29.70;51.30;;;;;;5088125;28;20524;-73
2021/06/18 09:54:41;;;;;;;13.43;9.83;;;29.70;50.60;;;;;;5093639;28;20795;-74
2021/06/18 09:57:11;;;;;;;17.60;10.90;;;29.70;51.20;;;;;;5091677;28;20426;-74
2021/06/18 09:59:46;;;;;;;15.03;10.40;;;29.70;51.20;;;;;;5083664;28;20458;-75
2021/06/18 10:02:12;;;;;;;11.33;9.77;;;29.60;50.70;;;;;;5069392;28;20429;-76
2021/06/18 10:04:39;;;;;;;14.47;11.00;;;29.60;50.50;;;;;;5073391;28;20430;-77
2021/06/18 10:07:05;;;;;;;13.23;9.60;;;29.70;49.10;;;;;;5075223;28;20551;-77
2021/06/18 10:09:30;;;;;;;13.80;9.63;;;29.80;49.70;;;;;;5075680;28;20410;-77
2021/06/18 10:11:56;;;;;;;13.67;10.30;;;30.10;49.00;;;;;;5073747;28;20180;-75
2021/06/18 10:14:22;;;;;;;12.13;10.13;;;30.30;47.90;;;;;;5073964;28;20608;-75
2021/06/18 10:16:48;;;;;;;13.47;9.80;;;30.50;47.50;;;;;;5075637;28;20437;-77
2021/06/18 10:19:17;;;;;;;14.00;9.90;;;30.60;47.10;;;;;;5073764;28;20203;-77
2021/06/18 10:22:21;;;;;;;12.43;10.70;;;30.60;46.70;;;;;;5075595;28;20233;-76
2021/06/18 10:24:59;;;;;;;12.10;10.07;;;30.50;47.90;;;;;;5027735;28;20582;-78
2021/06/18 10:27:34;;;;;;;16.70;11.33;;;30.80;47.50;;;;;;5030490;28;20428;-75
2021/06/18 10:30:26;;;;;;;10.93;9.27;;;31.20;45.80;;;;;;5031483;28;20415;-78
2021/06/18 10:32:53;;;;;;;12.13;8.37;;;31.60;43.70;;;;;;5021852;28;20445;-75
2021/06/18 10:35:43;;;;;;;9.60;6.73;;;32.10;39.60;;;;;;5029064;28;20444;-76
2021/06/18 10:38:30;;;;;;;11.03;8.70;;;32.30;38.80;;;;;;5029777;28;20946;-75
2021/06/18 10:41:03;;;;;;;12.77;8.40;;;32.80;40.20;;;;;;5028776;28;20472;-77
2021/06/18 10:43:44;;;;;;;13.13;9.40;;;33.10;39.90;;;;;;5030211;28;20436;-77
2021/06/18 10:46:29;;;;;;;10.60;8.70;;;33.40;39.90;;;;;;5024236;28;20531;-76
2021/06/18 10:49:11;;;;;;;10.97;8.60;;;33.60;39.50;;;;;;5029915;28;20424;-76
2021/06/18 10:51:51;;;;;;;12.20;9.17;;;33.70;39.50;;;;;;5022272;28;20424;-76
2021/06/18 10:54:26;;;;;;;12.10;9.17;;;33.50;39.40;;;;;;5029097;28;20435;-77
2021/06/18 10:57:05;;;;;;;9.07;8.37;;;33.60;38.70;;;;;;5071560;28;20425;-76
2021/06/18 10:59:36;;;;;;;7.77;7.27;;;33.60;38.80;;;;;;5070529;28;20991;-77
2021/06/18 11:02:21;;;;;;;7.47;6.90;;;34.00;35.60;;;;;;5071776;28;20418;-77
2021/06/18 11:05:02;;;;;;;10.67;8.10;;;34.20;35.10;;;;;;5071640;28;20466;-77
2021/06/18 11:07:41;;;;;;;14.73;8.17;;;34.30;35.10;;;;;;5072206;28;20454;-76
2021/06/18 11:10:15;;;;;;;12.50;7.37;;;34.30;34.70;;;;;;5066019;28;20505;-76
2021/06/18 11:13:01;;;;;;;14.63;8.13;;;34.00;35.20;;;;;;5071810;28;20417;-75
2021/06/18 11:15:29;;;;;;;9.70;7.60;;;34.00;35.20;;;;;;5072709;28;20437;-77
2021/06/18 11:18:13;;;;;;;9.43;6.83;;;34.30;34.40;;;;;;5065283;28;20453;-77
2021/06/18 11:20:38;;;;;;;9.63;7.37;;;34.40;34.40;;;;;;5071552;28;20466;-75
2021/06/18 11:23:08;;;;;;;11.23;8.30;;;34.70;34.10;;;;;;5072131;28;20954;-76
2021/06/18 11:25:40;;;;;;;14.47;8.87;;;34.90;34.80;;;;;;5072909;28;20200;-77
2021/06/18 11:28:25;;;;;;;7.97;6.60;;;34.60;36.40;;;;;;5062771;28;20449;-76
2021/06/18 11:30:57;;;;;;;7.53;4.97;;;34.30;32.80;;;;;;5071444;28;20422;-77
2021/06/18 11:33:42;;;;;;;8.07;5.50;;;34.30;28.30;;;;;;5066961;28;20503;-76
2021/06/18 11:38:43;;;;;;;6.97;4.80;;;34.10;26.40;;;;;;5071489;28;21166;-78
2021/06/18 11:41:10;;;;;;;6.30;4.20;;;34.20;26.80;;;;;;5078635;28;20902;-75
2021/06/18 11:43:42;;;;;;;9.57;6.27;;;33.80;26.40;;;;;;5080574;28;20415;-76
2021/06/18 11:46:08;;;;;;;9.87;6.27;;;33.70;29.40;;;;;;5083669;28;20430;-75
2021/06/18 11:48:35;;;;;;;13.87;6.80;;;33.60;29.60;;;;;;5073720;28;20528;-77
2021/06/18 11:51:01;;;;;;;7.90;5.90;;;33.70;30.70;;;;;;5082198;28;20203;-78
2021/06/18 11:53:42;;;;;;;9.70;6.03;;;33.70;29.20;;;;;;5079228;28;20471;-78
2021/06/18 11:56:08;;;;;;;6.30;5.07;;;33.70;29.90;;;;;;5072056;28;20436;-79
2021/06/18 11:58:41;;;;;;;9.43;7.43;;;34.20;30.50;;;;;;5072530;28;20423;-78
2021/06/18 12:01:14;;;;;;;10.77;6.53;;;34.60;31.50;;;;;;5072154;28;20470;-76
2021/06/18 12:03:41;;;;;;;9.50;6.77;;;35.00;29.90;;;;;;5071841;28;20418;-76
2021/06/18 12:06:17;;;;;;;8.60;7.10;;;35.00;29.90;;;;;;5071295;28;20450;-76
2021/06/18 12:09:07;;;;;;;9.80;7.57;;;35.20;30.70;;;;;;5074675;28;20475;-76
2021/06/18 12:11:37;;;;;;;9.00;6.77;;;35.40;30.80;;;;;;5082116;28;20544;-75
2021/06/18 12:14:03;;;;;;;8.27;7.30;;;35.30;29.90;;;;;;5077702;28;20993;-75
2021/06/18 12:16:32;;;;;;;12.73;7.30;;;35.50;29.30;;;;;;5074065;28;20476;-76
2021/06/18 12:19:16;;;;;;;7.80;6.10;;;35.30;30.30;;;;;;5076534;28;20521;-75
2021/06/18 12:21:42;;;;;;;9.33;6.30;;;35.80;28.70;;;;;;5083423;28;20414;-76
2021/06/18 12:24:08;;;;;;;10.50;8.03;;;35.90;28.90;;;;;;5079956;28;20422;-76
2021/06/18 12:26:35;;;;;;;7.90;6.33;;;36.10;29.40;;;;;;5075444;28;20765;-76
2021/06/18 12:29:05;;;;;;;8.43;6.57;;;36.20;29.00;;;;;;5072868;28;20498;-76
2021/06/18 12:31:32;;;;;;;7.63;6.50;;;35.90;29.10;;;;;;5077622;28;20727;-77
2021/06/18 12:33:59;;;;;;;9.57;8.07;;;35.90;29.80;;;;;;5065021;28;20528;-75
2021/06/18 12:36:24;;;;;;;8.23;7.20;;;36.30;29.60;;;;;;5072426;28;20422;-76
2021/06/18 12:38:50;;;;;;;11.17;7.83;;;36.60;29.80;;;;;;5074726;28;20422;-76
2021/06/18 12:41:29;;;;;;;9.23;7.70;;;36.90;28.90;;;;;;5074530;28;20566;-77
2021/06/18 12:44:13;;;;;;;6.30;5.80;;;37.00;27.90;;;;;;5068151;28;20199;-76
2021/06/18 12:46:39;;;;;;;8.73;5.90;;;37.00;27.70;;;;;;5074608;28;20479;-76
2021/06/18 12:49:10;;;;;;;7.50;6.27;;;36.90;27.80;;;;;;5065117;28;20430;-76
2021/06/18 12:51:38;;;;;;;8.00;6.93;;;36.70;27.80;;;;;;5067605;28;20172;-77
2021/06/18 12:54:08;;;;;;;8.30;6.27;;;36.10;28.40;;;;;;5074354;28;21067;-75